sensor_id;sensor_type;location;lat;lon;timestamp;P1;durP1;ratioP1;P2;durP2;ratioP2
4148;SDS011;2088;51.032;7.082;2023-05-10T00:01:36;11.63;;;6.90;;
4148;SDS011;2088;51.032;7.082;2023-05-10T00:04:03;9.73;;;6.23;;
4148;SDS011;2088;51.032;7.082;2023-05-10T00:06:31;18.23;;;7.30;;
4148;SDS011;2088;51.032;7.082;2023-05-10T00:08:58;9.70;;;6.53;;
4148;SDS011;2088;51.032;7.082;2023-05-10T00:11:25;13.47;;;7.00;;
4148;SDS011;2088;51.032;7.082;2023-05-10T00:13:52;12.30;;;7.60;;
4148;SDS011;2088;51.032;7.082;2023-05-10T00:16:19;11.83;;;7.23;;
4148;SDS011;2088;51.032;7.082;2023-05-10T00:18:46;12.50;;;6.70;;
4148;SDS011;2088;51.032;7.082;2023-05-10T00:21:13;12.03;;;7.10;;
4148;SDS011;2088;51.032;7.082;2023-05-10T00:23:42;11.73;;;7.30;;
4148;SDS011;2088;51.032;7.082;2023-05-10T00:26:09;15.50;;;7.87;;
4148;SDS011;2088;51.032;7.082;2023-05-10T00:28:36;13.67;;;7.43;;
4148;SDS011;2088;51.032;7.082;2023-05-10T00:31:03;15.97;;;8.00;;
4148;SDS011;2088;51.032;7.082;2023-05-10T00:36:34;14.87;;;8.27;;
4148;SDS011;2088;51.032;7.082;2023-05-10T00:39:02;11.60;;;7.53;;
4148;SDS011;2088;51.032;7.082;2023-05-10T00:41:29;13.00;;;7.60;;
4148;SDS011;2088;51.032;7.082;2023-05-10T00:43:57;11.73;;;7.87;;
4148;SDS011;2088;51.032;7.082;2023-05-10T00:46:24;12.37;;;6.93;;
4148;SDS011;2088;51.032;7.082;2023-05-10T00:48:51;18.97;;;8.43;;
4148;SDS011;2088;51.032;7.082;2023-05-10T00:51:19;14.43;;;6.40;;
4148;SDS011;2088;51.032;7.082;2023-05-10T00:53:46;15.83;;;8.13;;
4148;SDS011;2088;51.032;7.082;2023-05-10T00:56:14;16.27;;;8.27;;
4148;SDS011;2088;51.032;7.082;2023-05-10T00:58:41;17.90;;;8.23;;
4148;SDS011;2088;51.032;7.082;2023-05-10T01:01:09;14.73;;;7.90;;
4148;SDS011;2088;51.032;7.082;2023-05-10T01:03:37;15.43;;;8.13;;
4148;SDS011;2088;51.032;7.082;2023-05-10T01:06:04;12.93;;;6.70;;
4148;SDS011;2088;51.032;7.082;2023-05-10T01:08:31;14.97;;;8.07;;
4148;SDS011;2088;51.032;7.082;2023-05-10T01:10:58;11.63;;;6.80;;
4148;SDS011;2088;51.032;7.082;2023-05-10T01:13:29;11.37;;;6.93;;
4148;SDS011;2088;51.032;7.082;2023-05-10T01:15:57;17.23;;;9.13;;
4148;SDS011;2088;51.032;7.082;2023-05-10T01:18:24;13.87;;;8.00;;
4148;SDS011;2088;51.032;7.082;2023-05-10T01:20:56;16.60;;;8.93;;
4148;SDS011;2088;51.032;7.082;2023-05-10T01:23:30;14.90;;;8.23;;
4148;SDS011;2088;51.032;7.082;2023-05-10T01:26:14;16.30;;;8.03;;
4148;SDS011;2088;51.032;7.082;2023-05-10T01:28:48;14.40;;;8.50;;
4148;SDS011;2088;51.032;7.082;2023-05-10T01:31:28;14.53;;;8.80;;
4148;SDS011;2088;51.032;7.082;2023-05-10T01:33:59;18.27;;;8.27;;
4148;SDS011;2088;51.032;7.082;2023-05-10T01:36:29;17.63;;;7.80;;
4148;SDS011;2088;51.032;7.082;2023-05-10T01:38:58;17.30;;;9.57;;
4148;SDS011;2088;51.032;7.082;2023-05-10T01:41:29;13.77;;;7.70;;
4148;SDS011;2088;51.032;7.082;2023-05-10T01:43:59;16.37;;;9.40;;
4148;SDS011;2088;51.032;7.082;2023-05-10T01:46:29;16.27;;;8.20;;
4148;SDS011;2088;51.032;7.082;2023-05-10T01:49:00;16.17;;;8.27;;
4148;SDS011;2088;51.032;7.082;2023-05-10T01:51:31;28.47;;;8.13;;
4148;SDS011;2088;51.032;7.082;2023-05-10T01:54:03;13.23;;;7.60;;
4148;SDS011;2088;51.032;7.082;2023-05-10T01:56:30;16.50;;;8.97;;
4148;SDS011;2088;51.032;7.082;2023-05-10T01:58:58;16.77;;;8.30;;
4148;SDS011;2088;51.032;7.082;2023-05-10T02:01:26;17.90;;;8.50;;
4148;SDS011;2088;51.032;7.082;2023-05-10T02:03:54;13.47;;;7.77;;
4148;SDS011;2088;51.032;7.082;2023-05-10T02:06:23;18.20;;;9.30;;
4148;SDS011;2088;51.032;7.082;2023-05-10T02:08:51;15.50;;;8.47;;
4148;SDS011;2088;51.032;7.082;2023-05-10T02:11:19;15.17;;;7.97;;
4148;SDS011;2088;51.032;7.082;2023-05-10T02:13:47;17.40;;;8.20;;
4148;SDS011;2088;51.032;7.082;2023-05-10T02:16:14;12.60;;;7.57;;
4148;SDS011;2088;51.032;7.082;2023-05-10T02:18:43;13.53;;;6.93;;
4148;SDS011;2088;51.032;7.082;2023-05-10T02:21:11;11.27;;;5.87;;
4148;SDS011;2088;51.032;7.082;2023-05-10T02:23:40;12.40;;;6.20;;
4148;SDS011;2088;51.032;7.082;2023-05-10T02:26:07;11.33;;;5.97;;
4148;SDS011;2088;51.032;7.082;2023-05-10T02:28:34;17.53;;;6.33;;
4148;SDS011;2088;51.032;7.082;2023-05-10T02:31:02;17.07;;;6.90;;
4148;SDS011;2088;51.032;7.082;2023-05-10T02:33:29;11.27;;;5.90;;
4148;SDS011;2088;51.032;7.082;2023-05-10T02:35:58;11.33;;;5.33;;
4148;SDS011;2088;51.032;7.082;2023-05-10T02:38:25;11.87;;;6.10;;
4148;SDS011;2088;51.032;7.082;2023-05-10T02:40:55;10.83;;;5.10;;
4148;SDS011;2088;51.032;7.082;2023-05-10T02:43:22;7.80;;;4.47;;
4148;SDS011;2088;51.032;7.082;2023-05-10T02:45:49;12.10;;;6.40;;
4148;SDS011;2088;51.032;7.082;2023-05-10T02:48:16;10.57;;;5.60;;
4148;SDS011;2088;51.032;7.082;2023-05-10T02:50:44;8.90;;;4.93;;
4148;SDS011;2088;51.032;7.082;2023-05-10T02:53:18;8.20;;;4.10;;
4148;SDS011;2088;51.032;7.082;2023-05-10T02:55:46;10.43;;;5.27;;
4148;SDS011;2088;51.032;7.082;2023-05-10T02:58:17;9.27;;;4.47;;
4148;SDS011;2088;51.032;7.082;2023-05-10T03:00:44;5.60;;;3.60;;
4148;SDS011;2088;51.032;7.082;2023-05-10T03:03:11;7.23;;;4.40;;
4148;SDS011;2088;51.032;7.082;2023-05-10T03:05:38;6.17;;;4.03;;
4148;SDS011;2088;51.032;7.082;2023-05-10T03:08:05;6.47;;;4.53;;
4148;SDS011;2088;51.032;7.082;2023-05-10T03:10:32;9.60;;;5.00;;
4148;SDS011;2088;51.032;7.082;2023-05-10T03:13:12;14.83;;;5.20;;
4148;SDS011;2088;51.032;7.082;2023-05-10T03:15:47;6.40;;;4.60;;
4148;SDS011;2088;51.032;7.082;2023-05-10T03:18:18;8.80;;;4.27;;
4148;SDS011;2088;51.032;7.082;2023-05-10T03:20:47;10.13;;;4.60;;
4148;SDS011;2088;51.032;7.082;2023-05-10T03:23:19;9.13;;;5.03;;
4148;SDS011;2088;51.032;7.082;2023-05-10T03:25:48;12.60;;;5.37;;
4148;SDS011;2088;51.032;7.082;2023-05-10T03:28:16;8.73;;;5.93;;
4148;SDS011;2088;51.032;7.082;2023-05-10T03:30:45;12.70;;;4.67;;
4148;SDS011;2088;51.032;7.082;2023-05-10T03:33:12;9.57;;;5.67;;
4148;SDS011;2088;51.032;7.082;2023-05-10T03:35:40;15.00;;;6.27;;
4148;SDS011;2088;51.032;7.082;2023-05-10T03:38:07;7.40;;;4.23;;
4148;SDS011;2088;51.032;7.082;2023-05-10T03:40:34;9.63;;;5.20;;
4148;SDS011;2088;51.032;7.082;2023-05-10T03:43:01;14.63;;;6.07;;
4148;SDS011;2088;51.032;7.082;2023-05-10T03:45:28;13.63;;;5.63;;
4148;SDS011;2088;51.032;7.082;2023-05-10T03:47:57;9.50;;;5.07;;
4148;SDS011;2088;51.032;7.082;2023-05-10T03:50:24;9.67;;;5.50;;
4148;SDS011;2088;51.032;7.082;2023-05-10T03:52:51;10.23;;;5.70;;
4148;SDS011;2088;51.032;7.082;2023-05-10T03:55:18;8.90;;;6.37;;
4148;SDS011;2088;51.032;7.082;2023-05-10T03:57:45;11.43;;;6.27;;
4148;SDS011;2088;51.032;7.082;2023-05-10T04:00:14;9.33;;;5.67;;
4148;SDS011;2088;51.032;7.082;2023-05-10T04:02:41;9.93;;;5.77;;
4148;SDS011;2088;51.032;7.082;2023-05-10T04:05:10;11.63;;;6.50;;
4148;SDS011;2088;51.032;7.082;2023-05-10T04:07:37;11.73;;;6.80;;
4148;SDS011;2088;51.032;7.082;2023-05-10T04:10:05;12.40;;;6.47;;
4148;SDS011;2088;51.032;7.082;2023-05-10T04:12:32;10.10;;;7.30;;
4148;SDS011;2088;51.032;7.082;2023-05-10T04:14:59;12.43;;;7.40;;
4148;SDS011;2088;51.032;7.082;2023-05-10T04:17:26;23.57;;;7.73;;
4148;SDS011;2088;51.032;7.082;2023-05-10T04:19:54;12.73;;;8.27;;
4148;SDS011;2088;51.032;7.082;2023-05-10T04:22:22;11.67;;;7.10;;
4148;SDS011;2088;51.032;7.082;2023-05-10T04:24:49;14.20;;;8.87;;
4148;SDS011;2088;51.032;7.082;2023-05-10T04:27:16;12.10;;;7.83;;
4148;SDS011;2088;51.032;7.082;2023-05-10T04:29:43;12.53;;;6.90;;
4148;SDS011;2088;51.032;7.082;2023-05-10T04:32:10;20.13;;;7.67;;
4148;SDS011;2088;51.032;7.082;2023-05-10T04:34:37;18.13;;;7.80;;
4148;SDS011;2088;51.032;7.082;2023-05-10T04:37:05;16.80;;;8.50;;
4148;SDS011;2088;51.032;7.082;2023-05-10T04:39:33;13.33;;;7.97;;
4148;SDS011;2088;51.032;7.082;2023-05-10T04:42:01;14.57;;;7.23;;
4148;SDS011;2088;51.032;7.082;2023-05-10T04:44:30;14.37;;;7.77;;
4148;SDS011;2088;51.032;7.082;2023-05-10T04:46:58;12.80;;;6.87;;
4148;SDS011;2088;51.032;7.082;2023-05-10T04:49:27;9.53;;;6.10;;
4148;SDS011;2088;51.032;7.082;2023-05-10T04:51:54;10.87;;;7.10;;
4148;SDS011;2088;51.032;7.082;2023-05-10T04:54:21;16.00;;;8.30;;
4148;SDS011;2088;51.032;7.082;2023-05-10T04:56:50;17.00;;;8.87;;
4148;SDS011;2088;51.032;7.082;2023-05-10T04:59:17;18.20;;;8.60;;
4148;SDS011;2088;51.032;7.082;2023-05-10T05:01:44;16.20;;;9.47;;
4148;SDS011;2088;51.032;7.082;2023-05-10T05:04:11;28.33;;;12.47;;
4148;SDS011;2088;51.032;7.082;2023-05-10T05:06:39;30.83;;;15.50;;
4148;SDS011;2088;51.032;7.082;2023-05-10T05:09:06;25.40;;;11.80;;
4148;SDS011;2088;51.032;7.082;2023-05-10T05:11:35;30.40;;;13.27;;
4148;SDS011;2088;51.032;7.082;2023-05-10T05:14:03;31.90;;;11.10;;
4148;SDS011;2088;51.032;7.082;2023-05-10T05:16:30;24.03;;;13.10;;
4148;SDS011;2088;51.032;7.082;2023-05-10T05:18:57;23.33;;;11.80;;
4148;SDS011;2088;51.032;7.082;2023-05-10T05:21:24;31.30;;;12.47;;
4148;SDS011;2088;51.032;7.082;2023-05-10T05:23:52;24.97;;;12.20;;
4148;SDS011;2088;51.032;7.082;2023-05-10T05:26:19;23.93;;;12.00;;
4148;SDS011;2088;51.032;7.082;2023-05-10T05:28:46;28.67;;;13.37;;
4148;SDS011;2088;51.032;7.082;2023-05-10T05:31:15;26.63;;;12.60;;
4148;SDS011;2088;51.032;7.082;2023-05-10T05:33:42;21.47;;;10.87;;
4148;SDS011;2088;51.032;7.082;2023-05-10T05:36:09;22.67;;;11.70;;
4148;SDS011;2088;51.032;7.082;2023-05-10T05:38:36;18.20;;;11.30;;
4148;SDS011;2088;51.032;7.082;2023-05-10T05:41:04;24.50;;;11.70;;
4148;SDS011;2088;51.032;7.082;2023-05-10T05:43:31;25.90;;;13.17;;
4148;SDS011;2088;51.032;7.082;2023-05-10T05:45:58;19.10;;;11.30;;
4148;SDS011;2088;51.032;7.082;2023-05-10T05:48:27;25.13;;;11.97;;
4148;SDS011;2088;51.032;7.082;2023-05-10T05:50:54;23.43;;;10.93;;
4148;SDS011;2088;51.032;7.082;2023-05-10T05:53:22;23.97;;;12.30;;
4148;SDS011;2088;51.032;7.082;2023-05-10T05:55:52;24.37;;;11.27;;
4148;SDS011;2088;51.032;7.082;2023-05-10T05:58:20;21.60;;;10.73;;
4148;SDS011;2088;51.032;7.082;2023-05-10T06:00:47;21.77;;;11.47;;
4148;SDS011;2088;51.032;7.082;2023-05-10T06:03:14;21.97;;;11.13;;
4148;SDS011;2088;51.032;7.082;2023-05-10T06:05:42;27.83;;;11.00;;
4148;SDS011;2088;51.032;7.082;2023-05-10T06:08:09;22.97;;;10.20;;
4148;SDS011;2088;51.032;7.082;2023-05-10T06:10:36;24.17;;;11.10;;
4148;SDS011;2088;51.032;7.082;2023-05-10T06:13:03;17.43;;;9.70;;
4148;SDS011;2088;51.032;7.082;2023-05-10T06:15:30;25.67;;;11.03;;
4148;SDS011;2088;51.032;7.082;2023-05-10T06:17:58;23.13;;;9.60;;
4148;SDS011;2088;51.032;7.082;2023-05-10T06:20:25;22.00;;;11.17;;
4148;SDS011;2088;51.032;7.082;2023-05-10T06:22:54;23.90;;;11.33;;
4148;SDS011;2088;51.032;7.082;2023-05-10T06:25:21;26.93;;;11.40;;
4148;SDS011;2088;51.032;7.082;2023-05-10T06:27:48;38.70;;;11.23;;
4148;SDS011;2088;51.032;7.082;2023-05-10T06:30:15;23.77;;;11.30;;
4148;SDS011;2088;51.032;7.082;2023-05-10T06:32:42;24.83;;;10.60;;
4148;SDS011;2088;51.032;7.082;2023-05-10T06:35:10;24.97;;;10.80;;
4148;SDS011;2088;51.032;7.082;2023-05-10T06:37:37;24.23;;;10.20;;
4148;SDS011;2088;51.032;7.082;2023-05-10T06:40:06;25.20;;;11.10;;
4148;SDS011;2088;51.032;7.082;2023-05-10T06:42:34;24.63;;;10.23;;
4148;SDS011;2088;51.032;7.082;2023-05-10T06:45:01;19.13;;;10.80;;
4148;SDS011;2088;51.032;7.082;2023-05-10T06:47:28;20.73;;;10.20;;
4148;SDS011;2088;51.032;7.082;2023-05-10T06:49:55;28.43;;;11.90;;
4148;SDS011;2088;51.032;7.082;2023-05-10T06:52:22;26.23;;;9.40;;
4148;SDS011;2088;51.032;7.082;2023-05-10T06:54:49;22.73;;;10.63;;
4148;SDS011;2088;51.032;7.082;2023-05-10T06:57:18;27.57;;;12.53;;
4148;SDS011;2088;51.032;7.082;2023-05-10T06:59:45;22.87;;;12.30;;
4148;SDS011;2088;51.032;7.082;2023-05-10T07:02:12;20.67;;;10.70;;
4148;SDS011;2088;51.032;7.082;2023-05-10T07:04:40;27.33;;;12.27;;
4148;SDS011;2088;51.032;7.082;2023-05-10T07:07:07;18.07;;;9.70;;
4148;SDS011;2088;51.032;7.082;2023-05-10T07:09:34;37.27;;;10.87;;
4148;SDS011;2088;51.032;7.082;2023-05-10T07:12:01;20.03;;;10.60;;
4148;SDS011;2088;51.032;7.082;2023-05-10T07:14:30;25.50;;;10.97;;
4148;SDS011;2088;51.032;7.082;2023-05-10T07:16:57;18.30;;;9.63;;
4148;SDS011;2088;51.032;7.082;2023-05-10T07:19:24;30.10;;;11.83;;
4148;SDS011;2088;51.032;7.082;2023-05-10T07:21:51;23.20;;;11.97;;
4148;SDS011;2088;51.032;7.082;2023-05-10T07:24:18;21.80;;;11.33;;
4148;SDS011;2088;51.032;7.082;2023-05-10T07:26:45;21.10;;;10.67;;
4148;SDS011;2088;51.032;7.082;2023-05-10T07:29:12;25.20;;;10.63;;
4148;SDS011;2088;51.032;7.082;2023-05-10T07:31:40;25.67;;;10.53;;
4148;SDS011;2088;51.032;7.082;2023-05-10T07:34:07;28.63;;;11.30;;
4148;SDS011;2088;51.032;7.082;2023-05-10T07:36:35;19.50;;;10.30;;
4148;SDS011;2088;51.032;7.082;2023-05-10T07:39:02;19.87;;;11.40;;
4148;SDS011;2088;51.032;7.082;2023-05-10T07:41:29;25.13;;;10.17;;
4148;SDS011;2088;51.032;7.082;2023-05-10T07:43:56;24.70;;;12.30;;
4148;SDS011;2088;51.032;7.082;2023-05-10T07:46:23;23.30;;;10.90;;
4148;SDS011;2088;51.032;7.082;2023-05-10T07:48:51;24.83;;;11.37;;
4148;SDS011;2088;51.032;7.082;2023-05-10T07:51:18;17.57;;;9.57;;
4148;SDS011;2088;51.032;7.082;2023-05-10T07:53:46;23.50;;;11.37;;
4148;SDS011;2088;51.032;7.082;2023-05-10T07:56:20;21.23;;;9.80;;
4148;SDS011;2088;51.032;7.082;2023-05-10T07:58:47;22.80;;;10.07;;
4148;SDS011;2088;51.032;7.082;2023-05-10T08:01:15;24.03;;;11.50;;
4148;SDS011;2088;51.032;7.082;2023-05-10T08:03:42;27.23;;;10.83;;
4148;SDS011;2088;51.032;7.082;2023-05-10T08:06:10;23.30;;;10.17;;
4148;SDS011;2088;51.032;7.082;2023-05-10T08:08:37;18.53;;;9.77;;
4148;SDS011;2088;51.032;7.082;2023-05-10T08:11:04;21.43;;;9.37;;
4148;SDS011;2088;51.032;7.082;2023-05-10T08:13:31;16.70;;;9.83;;
4148;SDS011;2088;51.032;7.082;2023-05-10T08:15:58;16.37;;;9.83;;
4148;SDS011;2088;51.032;7.082;2023-05-10T08:18:26;17.27;;;10.20;;
4148;SDS011;2088;51.032;7.082;2023-05-10T08:20:53;18.57;;;10.83;;
4148;SDS011;2088;51.032;7.082;2023-05-10T08:23:21;18.07;;;9.10;;
4148;SDS011;2088;51.032;7.082;2023-05-10T08:25:48;22.90;;;10.23;;
4148;SDS011;2088;51.032;7.082;2023-05-10T08:28:15;23.20;;;11.23;;
4148;SDS011;2088;51.032;7.082;2023-05-10T08:30:42;16.93;;;9.90;;
4148;SDS011;2088;51.032;7.082;2023-05-10T08:33:09;21.57;;;10.13;;
4148;SDS011;2088;51.032;7.082;2023-05-10T08:35:36;20.40;;;9.50;;
4148;SDS011;2088;51.032;7.082;2023-05-10T08:38:04;17.63;;;9.63;;
4148;SDS011;2088;51.032;7.082;2023-05-10T08:40:32;21.73;;;10.13;;
4148;SDS011;2088;51.032;7.082;2023-05-10T08:43:02;12.40;;;8.83;;
4148;SDS011;2088;51.032;7.082;2023-05-10T08:45:32;23.20;;;9.70;;
4148;SDS011;2088;51.032;7.082;2023-05-10T08:47:59;13.73;;;8.10;;
4148;SDS011;2088;51.032;7.082;2023-05-10T08:50:27;20.87;;;9.10;;
4148;SDS011;2088;51.032;7.082;2023-05-10T08:52:57;20.87;;;9.63;;
4148;SDS011;2088;51.032;7.082;2023-05-10T08:55:24;15.50;;;7.67;;
4148;SDS011;2088;51.032;7.082;2023-05-10T08:57:53;12.70;;;7.37;;
4148;SDS011;2088;51.032;7.082;2023-05-10T09:00:20;16.17;;;8.67;;
4148;SDS011;2088;51.032;7.082;2023-05-10T09:02:49;14.97;;;7.50;;
4148;SDS011;2088;51.032;7.082;2023-05-10T09:05:16;11.83;;;6.83;;
4148;SDS011;2088;51.032;7.082;2023-05-10T09:07:43;13.10;;;7.77;;
4148;SDS011;2088;51.032;7.082;2023-05-10T09:10:10;9.27;;;6.10;;
4148;SDS011;2088;51.032;7.082;2023-05-10T09:12:37;11.20;;;7.43;;
4148;SDS011;2088;51.032;7.082;2023-05-10T09:15:07;19.40;;;8.63;;
4148;SDS011;2088;51.032;7.082;2023-05-10T09:17:34;21.10;;;9.33;;
4148;SDS011;2088;51.032;7.082;2023-05-10T09:20:01;16.33;;;8.47;;
4148;SDS011;2088;51.032;7.082;2023-05-10T09:22:29;26.10;;;9.30;;
4148;SDS011;2088;51.032;7.082;2023-05-10T09:25:06;29.27;;;11.27;;
4148;SDS011;2088;51.032;7.082;2023-05-10T09:27:33;30.03;;;12.00;;
4148;SDS011;2088;51.032;7.082;2023-05-10T09:30:00;21.20;;;10.00;;
4148;SDS011;2088;51.032;7.082;2023-05-10T09:32:37;20.83;;;10.67;;
4148;SDS011;2088;51.032;7.082;2023-05-10T09:35:11;24.67;;;11.10;;
4148;SDS011;2088;51.032;7.082;2023-05-10T09:37:38;23.13;;;11.10;;
4148;SDS011;2088;51.032;7.082;2023-05-10T09:40:07;31.70;;;12.90;;
4148;SDS011;2088;51.032;7.082;2023-05-10T09:42:35;30.23;;;13.30;;
4148;SDS011;2088;51.032;7.082;2023-05-10T09:45:02;31.33;;;13.80;;
4148;SDS011;2088;51.032;7.082;2023-05-10T09:47:31;30.00;;;12.87;;
4148;SDS011;2088;51.032;7.082;2023-05-10T09:50:00;34.47;;;13.33;;
4148;SDS011;2088;51.032;7.082;2023-05-10T09:52:29;23.43;;;12.57;;
4148;SDS011;2088;51.032;7.082;2023-05-10T09:54:57;32.40;;;12.90;;
4148;SDS011;2088;51.032;7.082;2023-05-10T09:57:24;23.10;;;10.50;;
4148;SDS011;2088;51.032;7.082;2023-05-10T09:59:52;31.03;;;12.73;;
4148;SDS011;2088;51.032;7.082;2023-05-10T10:02:20;27.00;;;14.33;;
4148;SDS011;2088;51.032;7.082;2023-05-10T10:04:48;27.83;;;13.13;;
4148;SDS011;2088;51.032;7.082;2023-05-10T10:07:18;28.63;;;12.90;;
4148;SDS011;2088;51.032;7.082;2023-05-10T10:09:49;30.13;;;14.20;;
4148;SDS011;2088;51.032;7.082;2023-05-10T10:12:16;33.80;;;13.77;;
4148;SDS011;2088;51.032;7.082;2023-05-10T10:14:44;35.80;;;13.67;;
4148;SDS011;2088;51.032;7.082;2023-05-10T10:17:12;38.53;;;13.90;;
4148;SDS011;2088;51.032;7.082;2023-05-10T10:19:39;32.80;;;14.00;;
4148;SDS011;2088;51.032;7.082;2023-05-10T10:22:06;27.17;;;11.90;;
4148;SDS011;2088;51.032;7.082;2023-05-10T10:24:37;29.80;;;13.13;;
4148;SDS011;2088;51.032;7.082;2023-05-10T10:27:07;27.67;;;12.97;;
4148;SDS011;2088;51.032;7.082;2023-05-10T10:29:36;30.43;;;12.10;;
4148;SDS011;2088;51.032;7.082;2023-05-10T10:32:07;27.23;;;11.60;;
4148;SDS011;2088;51.032;7.082;2023-05-10T10:34:38;23.80;;;11.73;;
4148;SDS011;2088;51.032;7.082;2023-05-10T10:37:05;24.70;;;12.73;;
4148;SDS011;2088;51.032;7.082;2023-05-10T10:39:32;29.90;;;13.27;;
4148;SDS011;2088;51.032;7.082;2023-05-10T10:42:03;31.10;;;12.50;;
4148;SDS011;2088;51.032;7.082;2023-05-10T10:44:34;22.07;;;10.23;;
4148;SDS011;2088;51.032;7.082;2023-05-10T10:47:04;21.87;;;12.70;;
4148;SDS011;2088;51.032;7.082;2023-05-10T10:49:36;22.87;;;10.23;;
4148;SDS011;2088;51.032;7.082;2023-05-10T10:52:13;20.77;;;11.00;;
4148;SDS011;2088;51.032;7.082;2023-05-10T10:54:40;19.60;;;9.50;;
4148;SDS011;2088;51.032;7.082;2023-05-10T10:57:12;18.57;;;9.67;;
4148;SDS011;2088;51.032;7.082;2023-05-10T10:59:42;22.07;;;10.17;;
4148;SDS011;2088;51.032;7.082;2023-05-10T11:02:09;18.93;;;9.23;;
4148;SDS011;2088;51.032;7.082;2023-05-10T11:04:43;22.13;;;10.23;;
4148;SDS011;2088;51.032;7.082;2023-05-10T11:07:17;20.13;;;9.93;;
4148;SDS011;2088;51.032;7.082;2023-05-10T11:09:45;21.67;;;10.43;;
4148;SDS011;2088;51.032;7.082;2023-05-10T11:12:15;20.07;;;9.87;;
4148;SDS011;2088;51.032;7.082;2023-05-10T11:14:42;19.47;;;10.07;;
4148;SDS011;2088;51.032;7.082;2023-05-10T11:17:24;20.73;;;10.40;;
4148;SDS011;2088;51.032;7.082;2023-05-10T11:20:06;21.60;;;10.20;;
4148;SDS011;2088;51.032;7.082;2023-05-10T11:22:48;18.20;;;9.70;;
4148;SDS011;2088;51.032;7.082;2023-05-10T11:25:16;22.50;;;10.13;;
4148;SDS011;2088;51.032;7.082;2023-05-10T11:27:44;25.60;;;11.40;;
4148;SDS011;2088;51.032;7.082;2023-05-10T11:30:12;18.17;;;10.23;;
4148;SDS011;2088;51.032;7.082;2023-05-10T11:32:40;17.67;;;8.63;;
4148;SDS011;2088;51.032;7.082;2023-05-10T11:35:07;16.27;;;9.07;;
4148;SDS011;2088;51.032;7.082;2023-05-10T11:37:34;16.57;;;8.90;;
4148;SDS011;2088;51.032;7.082;2023-05-10T11:40:02;21.43;;;8.80;;
4148;SDS011;2088;51.032;7.082;2023-05-10T11:42:29;24.50;;;9.40;;
4148;SDS011;2088;51.032;7.082;2023-05-10T11:44:57;18.50;;;9.30;;
4148;SDS011;2088;51.032;7.082;2023-05-10T11:47:24;10.03;;;6.90;;
4148;SDS011;2088;51.032;7.082;2023-05-10T11:49:51;18.80;;;8.20;;
4148;SDS011;2088;51.032;7.082;2023-05-10T11:52:19;11.90;;;8.07;;
4148;SDS011;2088;51.032;7.082;2023-05-10T11:54:50;21.17;;;7.70;;
4148;SDS011;2088;51.032;7.082;2023-05-10T11:57:18;16.77;;;7.27;;
4148;SDS011;2088;51.032;7.082;2023-05-10T11:59:45;13.57;;;7.10;;
4148;SDS011;2088;51.032;7.082;2023-05-10T12:02:13;10.47;;;6.17;;
4148;SDS011;2088;51.032;7.082;2023-05-10T12:04:41;9.90;;;6.87;;
4148;SDS011;2088;51.032;7.082;2023-05-10T12:07:08;10.13;;;6.73;;
4148;SDS011;2088;51.032;7.082;2023-05-10T12:09:35;12.60;;;7.50;;
4148;SDS011;2088;51.032;7.082;2023-05-10T12:12:03;11.23;;;6.40;;
4148;SDS011;2088;51.032;7.082;2023-05-10T12:14:33;8.03;;;5.83;;
4148;SDS011;2088;51.032;7.082;2023-05-10T12:17:00;9.47;;;5.40;;
4148;SDS011;2088;51.032;7.082;2023-05-10T12:19:29;11.07;;;5.33;;
4148;SDS011;2088;51.032;7.082;2023-05-10T12:22:04;5.97;;;4.13;;
4148;SDS011;2088;51.032;7.082;2023-05-10T12:24:33;6.90;;;4.73;;
4148;SDS011;2088;51.032;7.082;2023-05-10T12:27:04;7.70;;;3.90;;
4148;SDS011;2088;51.032;7.082;2023-05-10T12:29:33;3.93;;;2.63;;
4148;SDS011;2088;51.032;7.082;2023-05-10T12:32:00;3.93;;;2.70;;
4148;SDS011;2088;51.032;7.082;2023-05-10T12:34:31;3.93;;;2.23;;
4148;SDS011;2088;51.032;7.082;2023-05-10T12:36:59;3.33;;;2.57;;
4148;SDS011;2088;51.032;7.082;2023-05-10T12:39:37;3.80;;;2.60;;
4148;SDS011;2088;51.032;7.082;2023-05-10T12:42:04;8.23;;;3.23;;
4148;SDS011;2088;51.032;7.082;2023-05-10T12:44:32;3.20;;;2.87;;
4148;SDS011;2088;51.032;7.082;2023-05-10T12:46:59;4.90;;;2.80;;
4148;SDS011;2088;51.032;7.082;2023-05-10T12:49:26;5.00;;;2.70;;
4148;SDS011;2088;51.032;7.082;2023-05-10T12:51:54;12.33;;;3.50;;
4148;SDS011;2088;51.032;7.082;2023-05-10T12:54:21;2.33;;;2.13;;
4148;SDS011;2088;51.032;7.082;2023-05-10T12:56:49;3.60;;;2.80;;
4148;SDS011;2088;51.032;7.082;2023-05-10T12:59:16;2.20;;;1.93;;
4148;SDS011;2088;51.032;7.082;2023-05-10T13:01:43;5.10;;;2.17;;
4148;SDS011;2088;51.032;7.082;2023-05-10T13:04:10;2.57;;;2.10;;
4148;SDS011;2088;51.032;7.082;2023-05-10T13:06:37;2.87;;;1.93;;
4148;SDS011;2088;51.032;7.082;2023-05-10T13:09:05;2.73;;;2.07;;
4148;SDS011;2088;51.032;7.082;2023-05-10T13:11:32;1.87;;;1.73;;
4148;SDS011;2088;51.032;7.082;2023-05-10T13:13:59;2.37;;;1.97;;
4148;SDS011;2088;51.032;7.082;2023-05-10T13:16:28;2.70;;;2.27;;
4148;SDS011;2088;51.032;7.082;2023-05-10T13:18:55;2.07;;;1.80;;
4148;SDS011;2088;51.032;7.082;2023-05-10T13:21:22;3.97;;;1.70;;
4148;SDS011;2088;51.032;7.082;2023-05-10T13:23:50;5.77;;;2.87;;
4148;SDS011;2088;51.032;7.082;2023-05-10T13:26:18;2.70;;;2.37;;
4148;SDS011;2088;51.032;7.082;2023-05-10T13:28:46;2.77;;;1.83;;
4148;SDS011;2088;51.032;7.082;2023-05-10T13:31:13;4.63;;;2.40;;
4148;SDS011;2088;51.032;7.082;2023-05-10T13:33:40;4.00;;;2.37;;
4148;SDS011;2088;51.032;7.082;2023-05-10T13:36:08;9.33;;;3.10;;
4148;SDS011;2088;51.032;7.082;2023-05-10T13:38:35;3.17;;;2.10;;
4148;SDS011;2088;51.032;7.082;2023-05-10T13:41:02;2.73;;;2.23;;
4148;SDS011;2088;51.032;7.082;2023-05-10T13:43:30;3.40;;;2.40;;
4148;SDS011;2088;51.032;7.082;2023-05-10T13:45:58;3.00;;;2.27;;
4148;SDS011;2088;51.032;7.082;2023-05-10T13:48:25;2.40;;;2.10;;
4148;SDS011;2088;51.032;7.082;2023-05-10T13:50:52;2.20;;;1.97;;
4148;SDS011;2088;51.032;7.082;2023-05-10T13:53:19;3.87;;;2.37;;
4148;SDS011;2088;51.032;7.082;2023-05-10T13:55:46;2.13;;;1.77;;
4148;SDS011;2088;51.032;7.082;2023-05-10T13:58:13;2.10;;;1.60;;
4148;SDS011;2088;51.032;7.082;2023-05-10T14:00:41;3.73;;;1.80;;
4148;SDS011;2088;51.032;7.082;2023-05-10T14:03:09;4.60;;;2.03;;
4148;SDS011;2088;51.032;7.082;2023-05-10T14:05:36;2.63;;;1.60;;
4148;SDS011;2088;51.032;7.082;2023-05-10T14:08:03;5.27;;;2.60;;
4148;SDS011;2088;51.032;7.082;2023-05-10T14:10:30;3.00;;;2.10;;
4148;SDS011;2088;51.032;7.082;2023-05-10T14:12:57;2.60;;;2.40;;
4148;SDS011;2088;51.032;7.082;2023-05-10T14:15:24;3.20;;;2.23;;
4148;SDS011;2088;51.032;7.082;2023-05-10T14:17:52;4.43;;;3.30;;
4148;SDS011;2088;51.032;7.082;2023-05-10T14:20:19;4.30;;;3.43;;
4148;SDS011;2088;51.032;7.082;2023-05-10T14:22:46;4.77;;;3.73;;
4148;SDS011;2088;51.032;7.082;2023-05-10T14:25:13;4.50;;;2.60;;
4148;SDS011;2088;51.032;7.082;2023-05-10T14:27:41;6.10;;;4.20;;
4148;SDS011;2088;51.032;7.082;2023-05-10T14:30:08;9.13;;;5.57;;
4148;SDS011;2088;51.032;7.082;2023-05-10T14:32:35;9.43;;;5.47;;
4148;SDS011;2088;51.032;7.082;2023-05-10T14:35:04;7.40;;;5.13;;
4148;SDS011;2088;51.032;7.082;2023-05-10T14:37:32;8.67;;;3.77;;
4148;SDS011;2088;51.032;7.082;2023-05-10T14:39:59;9.73;;;5.03;;
4148;SDS011;2088;51.032;7.082;2023-05-10T14:42:26;6.57;;;5.03;;
4148;SDS011;2088;51.032;7.082;2023-05-10T14:44:53;5.53;;;4.20;;
4148;SDS011;2088;51.032;7.082;2023-05-10T14:47:20;10.10;;;5.00;;
4148;SDS011;2088;51.032;7.082;2023-05-10T14:49:47;8.27;;;5.10;;
4148;SDS011;2088;51.032;7.082;2023-05-10T14:52:16;6.83;;;5.07;;
4148;SDS011;2088;51.032;7.082;2023-05-10T14:54:43;12.07;;;5.93;;
4148;SDS011;2088;51.032;7.082;2023-05-10T14:57:10;10.30;;;5.97;;
4148;SDS011;2088;51.032;7.082;2023-05-10T14:59:37;10.07;;;6.00;;
4148;SDS011;2088;51.032;7.082;2023-05-10T15:02:04;10.50;;;7.00;;
4148;SDS011;2088;51.032;7.082;2023-05-10T15:04:33;12.07;;;7.50;;
4148;SDS011;2088;51.032;7.082;2023-05-10T15:07:00;10.07;;;7.07;;
4148;SDS011;2088;51.032;7.082;2023-05-10T15:09:28;10.97;;;7.20;;